sensor_id;sensor_type;location;lat;lon;timestamp;P1;durP1;ratioP1;P2;durP2;ratioP2
20888;SDS011;10604;51.976;7.594;2022-11-15T00:02:17;12.02;;;8.50;;
20888;SDS011;10604;51.976;7.594;2022-11-15T00:04:42;11.57;;;8.85;;
20888;SDS011;10604;51.976;7.594;2022-11-15T00:07:08;10.98;;;8.35;;
20888;SDS011;10604;51.976;7.594;2022-11-15T00:09:33;11.27;;;8.50;;
20888;SDS011;10604;51.976;7.594;2022-11-15T00:11:58;10.95;;;8.30;;
20888;SDS011;10604;51.976;7.594;2022-11-15T00:14:24;11.10;;;8.32;;
20888;SDS011;10604;51.976;7.594;2022-11-15T00:16:49;10.05;;;7.90;;
20888;SDS011;10604;51.976;7.594;2022-11-15T00:19:14;9.25;;;7.75;;
20888;SDS011;10604;51.976;7.594;2022-11-15T00:21:40;12.23;;;9.30;;
20888;SDS011;10604;51.976;7.594;2022-11-15T00:24:05;11.95;;;9.02;;
20888;SDS011;10604;51.976;7.594;2022-11-15T00:26:31;10.88;;;8.50;;
20888;SDS011;10604;51.976;7.594;2022-11-15T00:28:56;12.25;;;9.05;;
20888;SDS011;10604;51.976;7.594;2022-11-15T00:31:22;12.48;;;9.15;;
20888;SDS011;10604;51.976;7.594;2022-11-15T00:33:47;10.73;;;8.05;;
20888;SDS011;10604;51.976;7.594;2022-11-15T00:36:12;10.32;;;8.35;;
20888;SDS011;10604;51.976;7.594;2022-11-15T00:38:39;12.85;;;8.32;;
20888;SDS011;10604;51.976;7.594;2022-11-15T00:41:05;10.57;;;8.50;;
20888;SDS011;10604;51.976;7.594;2022-11-15T00:43:31;10.75;;;7.90;;
20888;SDS011;10604;51.976;7.594;2022-11-15T00:45:57;10.30;;;7.90;;
20888;SDS011;10604;51.976;7.594;2022-11-15T00:48:23;11.85;;;8.65;;
20888;SDS011;10604;51.976;7.594;2022-11-15T00:50:49;8.48;;;7.63;;
20888;SDS011;10604;51.976;7.594;2022-11-15T00:53:15;9.55;;;7.75;;
20888;SDS011;10604;51.976;7.594;2022-11-15T00:55:41;10.13;;;8.30;;
20888;SDS011;10604;51.976;7.594;2022-11-15T00:58:06;10.35;;;7.85;;
20888;SDS011;10604;51.976;7.594;2022-11-15T01:00:32;10.68;;;8.02;;
20888;SDS011;10604;51.976;7.594;2022-11-15T01:02:57;10.90;;;8.48;;
20888;SDS011;10604;51.976;7.594;2022-11-15T01:05:23;11.32;;;8.27;;
20888;SDS011;10604;51.976;7.594;2022-11-15T01:07:52;9.80;;;7.53;;
20888;SDS011;10604;51.976;7.594;2022-11-15T01:10:21;11.93;;;8.40;;
20888;SDS011;10604;51.976;7.594;2022-11-15T01:12:47;9.73;;;8.18;;
20888;SDS011;10604;51.976;7.594;2022-11-15T01:18:34;10.38;;;7.97;;
20888;SDS011;10604;51.976;7.594;2022-11-15T01:21:04;10.38;;;8.07;;
20888;SDS011;10604;51.976;7.594;2022-11-15T01:23:30;9.10;;;7.45;;
20888;SDS011;10604;51.976;7.594;2022-11-15T01:25:59;11.60;;;7.97;;
20888;SDS011;10604;51.976;7.594;2022-11-15T01:28:29;10.35;;;8.32;;
20888;SDS011;10604;51.976;7.594;2022-11-15T01:30:59;10.70;;;8.05;;
20888;SDS011;10604;51.976;7.594;2022-11-15T01:33:25;8.80;;;6.97;;
20888;SDS011;10604;51.976;7.594;2022-11-15T01:35:51;8.85;;;7.88;;
20888;SDS011;10604;51.976;7.594;2022-11-15T01:38:16;9.75;;;7.57;;
20888;SDS011;10604;51.976;7.594;2022-11-15T01:40:42;9.35;;;7.70;;
20888;SDS011;10604;51.976;7.594;2022-11-15T01:45:51;10.90;;;7.20;;
20888;SDS011;10604;51.976;7.594;2022-11-15T01:48:21;9.63;;;7.30;;
20888;SDS011;10604;51.976;7.594;2022-11-15T01:50:50;8.07;;;7.03;;
20888;SDS011;10604;51.976;7.594;2022-11-15T01:53:16;11.93;;;8.05;;
20888;SDS011;10604;51.976;7.594;2022-11-15T01:55:44;9.93;;;7.25;;
20888;SDS011;10604;51.976;7.594;2022-11-15T01:58:09;10.88;;;7.85;;
20888;SDS011;10604;51.976;7.594;2022-11-15T02:00:35;10.77;;;7.43;;
20888;SDS011;10604;51.976;7.594;2022-11-15T02:03:01;10.77;;;7.28;;
20888;SDS011;10604;51.976;7.594;2022-11-15T02:05:27;9.68;;;7.95;;
20888;SDS011;10604;51.976;7.594;2022-11-15T02:07:55;8.93;;;7.13;;
20888;SDS011;10604;51.976;7.594;2022-11-15T02:10:21;12.63;;;7.75;;
20888;SDS011;10604;51.976;7.594;2022-11-15T02:12:49;10.05;;;7.32;;
20888;SDS011;10604;51.976;7.594;2022-11-15T02:15:17;10.60;;;7.38;;
20888;SDS011;10604;51.976;7.594;2022-11-15T02:17:48;10.57;;;7.97;;
20888;SDS011;10604;51.976;7.594;2022-11-15T02:23:27;12.93;;;7.97;;
20888;SDS011;10604;51.976;7.594;2022-11-15T02:29:07;9.02;;;7.03;;
20888;SDS011;10604;51.976;7.594;2022-11-15T02:31:48;8.07;;;6.90;;
20888;SDS011;10604;51.976;7.594;2022-11-15T02:42:14;11.85;;;7.68;;
20888;SDS011;10604;51.976;7.594;2022-11-15T02:45:04;10.10;;;7.80;;
20888;SDS011;10604;51.976;7.594;2022-11-15T02:47:37;13.07;;;7.47;;
20888;SDS011;10604;51.976;7.594;2022-11-15T02:50:09;8.73;;;7.38;;
20888;SDS011;10604;51.976;7.594;2022-11-15T02:52:37;9.27;;;7.28;;
20888;SDS011;10604;51.976;7.594;2022-11-15T02:55:03;8.23;;;7.28;;
20888;SDS011;10604;51.976;7.594;2022-11-15T03:00:16;10.90;;;7.05;;
20888;SDS011;10604;51.976;7.594;2022-11-15T03:05:56;11.65;;;7.85;;
20888;SDS011;10604;51.976;7.594;2022-11-15T03:08:40;10.35;;;7.22;;
20888;SDS011;10604;51.976;7.594;2022-11-15T03:11:34;11.40;;;7.50;;
20888;SDS011;10604;51.976;7.594;2022-11-15T03:14:21;9.68;;;7.47;;
20888;SDS011;10604;51.976;7.594;2022-11-15T03:16:52;9.68;;;7.80;;
20888;SDS011;10604;51.976;7.594;2022-11-15T03:22:16;10.38;;;7.10;;
20888;SDS011;10604;51.976;7.594;2022-11-15T03:24:45;10.95;;;7.38;;
20888;SDS011;10604;51.976;7.594;2022-11-15T03:27:15;11.55;;;7.40;;
20888;SDS011;10604;51.976;7.594;2022-11-15T03:29:46;10.57;;;8.52;;
20888;SDS011;10604;51.976;7.594;2022-11-15T03:32:16;10.32;;;7.50;;
20888;SDS011;10604;51.976;7.594;2022-11-15T03:34:48;8.75;;;7.78;;
20888;SDS011;10604;51.976;7.594;2022-11-15T03:37:18;9.27;;;7.68;;
20888;SDS011;10604;51.976;7.594;2022-11-15T03:39:47;9.30;;;7.53;;
20888;SDS011;10604;51.976;7.594;2022-11-15T03:42:30;8.40;;;7.32;;
20888;SDS011;10604;51.976;7.594;2022-11-15T03:48:10;9.88;;;7.53;;
20888;SDS011;10604;51.976;7.594;2022-11-15T03:50:39;8.65;;;7.57;;
20888;SDS011;10604;51.976;7.594;2022-11-15T03:53:07;13.50;;;7.80;;
20888;SDS011;10604;51.976;7.594;2022-11-15T03:55:33;10.45;;;7.80;;
20888;SDS011;10604;51.976;7.594;2022-11-15T03:57:59;12.15;;;7.70;;
20888;SDS011;10604;51.976;7.594;2022-11-15T04:00:26;9.38;;;7.57;;
20888;SDS011;10604;51.976;7.594;2022-11-15T04:02:52;12.10;;;7.90;;
20888;SDS011;10604;51.976;7.594;2022-11-15T04:05:17;9.45;;;7.55;;
20888;SDS011;10604;51.976;7.594;2022-11-15T04:07:43;9.85;;;7.28;;
20888;SDS011;10604;51.976;7.594;2022-11-15T04:10:09;11.57;;;7.35;;
20888;SDS011;10604;51.976;7.594;2022-11-15T04:12:36;9.48;;;7.30;;
20888;SDS011;10604;51.976;7.594;2022-11-15T04:20:06;10.35;;;7.75;;
20888;SDS011;10604;51.976;7.594;2022-11-15T04:22:52;12.60;;;7.13;;
20888;SDS011;10604;51.976;7.594;2022-11-15T04:25:37;8.25;;;7.40;;
20888;SDS011;10604;51.976;7.594;2022-11-15T04:28:03;10.40;;;7.53;;
20888;SDS011;10604;51.976;7.594;2022-11-15T04:30:29;12.48;;;7.82;;
20888;SDS011;10604;51.976;7.594;2022-11-15T04:32:54;10.00;;;7.68;;
20888;SDS011;10604;51.976;7.594;2022-11-15T04:35:19;9.25;;;7.70;;
20888;SDS011;10604;51.976;7.594;2022-11-15T04:37:45;9.00;;;7.40;;
20888;SDS011;10604;51.976;7.594;2022-11-15T04:40:10;9.90;;;7.03;;
20888;SDS011;10604;51.976;7.594;2022-11-15T04:42:36;10.70;;;7.65;;
20888;SDS011;10604;51.976;7.594;2022-11-15T04:45:01;10.13;;;7.53;;
20888;SDS011;10604;51.976;7.594;2022-11-15T04:47:26;9.77;;;7.63;;
20888;SDS011;10604;51.976;7.594;2022-11-15T04:49:53;9.57;;;7.18;;
20888;SDS011;10604;51.976;7.594;2022-11-15T04:52:18;13.15;;;7.75;;
20888;SDS011;10604;51.976;7.594;2022-11-15T04:54:43;10.02;;;6.93;;
20888;SDS011;10604;51.976;7.594;2022-11-15T04:57:09;9.05;;;7.43;;
20888;SDS011;10604;51.976;7.594;2022-11-15T04:59:35;9.10;;;7.03;;
20888;SDS011;10604;51.976;7.594;2022-11-15T05:02:00;9.55;;;6.95;;
20888;SDS011;10604;51.976;7.594;2022-11-15T05:04:25;9.52;;;7.05;;
20888;SDS011;10604;51.976;7.594;2022-11-15T05:06:51;9.27;;;7.43;;
20888;SDS011;10604;51.976;7.594;2022-11-15T05:09:20;11.52;;;7.57;;
20888;SDS011;10604;51.976;7.594;2022-11-15T05:11:46;9.48;;;7.32;;
20888;SDS011;10604;51.976;7.594;2022-11-15T05:14:11;9.82;;;7.47;;
20888;SDS011;10604;51.976;7.594;2022-11-15T05:16:37;8.93;;;7.00;;
20888;SDS011;10604;51.976;7.594;2022-11-15T05:19:03;12.10;;;7.07;;
20888;SDS011;10604;51.976;7.594;2022-11-15T05:21:29;7.13;;;6.43;;
20888;SDS011;10604;51.976;7.594;2022-11-15T05:23:54;9.30;;;7.28;;
20888;SDS011;10604;51.976;7.594;2022-11-15T05:26:19;8.77;;;7.07;;
20888;SDS011;10604;51.976;7.594;2022-11-15T05:28:45;11.30;;;6.80;;
20888;SDS011;10604;51.976;7.594;2022-11-15T05:31:11;9.07;;;6.70;;
20888;SDS011;10604;51.976;7.594;2022-11-15T05:33:39;8.45;;;6.95;;
20888;SDS011;10604;51.976;7.594;2022-11-15T05:36:17;7.30;;;6.50;;
20888;SDS011;10604;51.976;7.594;2022-11-15T05:38:46;9.18;;;6.65;;
20888;SDS011;10604;51.976;7.594;2022-11-15T05:41:13;8.93;;;6.68;;
20888;SDS011;10604;51.976;7.594;2022-11-15T05:43:40;9.18;;;6.63;;
20888;SDS011;10604;51.976;7.594;2022-11-15T05:46:07;8.77;;;7.30;;
20888;SDS011;10604;51.976;7.594;2022-11-15T05:48:34;11.10;;;7.50;;
20888;SDS011;10604;51.976;7.594;2022-11-15T05:51:02;10.35;;;7.45;;
20888;SDS011;10604;51.976;7.594;2022-11-15T05:53:29;7.93;;;6.45;;
20888;SDS011;10604;51.976;7.594;2022-11-15T05:55:55;8.90;;;6.63;;
20888;SDS011;10604;51.976;7.594;2022-11-15T05:58:21;9.18;;;6.70;;
20888;SDS011;10604;51.976;7.594;2022-11-15T06:00:46;8.98;;;6.53;;
20888;SDS011;10604;51.976;7.594;2022-11-15T06:03:12;9.23;;;7.28;;
20888;SDS011;10604;51.976;7.594;2022-11-15T06:05:39;8.32;;;6.82;;
20888;SDS011;10604;51.976;7.594;2022-11-15T06:08:04;8.48;;;7.10;;
20888;SDS011;10604;51.976;7.594;2022-11-15T06:10:30;11.85;;;8.02;;
20888;SDS011;10604;51.976;7.594;2022-11-15T06:12:58;8.63;;;6.97;;
20888;SDS011;10604;51.976;7.594;2022-11-15T06:15:25;10.15;;;7.13;;
20888;SDS011;10604;51.976;7.594;2022-11-15T06:17:51;9.57;;;7.57;;
20888;SDS011;10604;51.976;7.594;2022-11-15T06:20:16;7.70;;;6.75;;
20888;SDS011;10604;51.976;7.594;2022-11-15T06:22:42;9.23;;;7.13;;
20888;SDS011;10604;51.976;7.594;2022-11-15T06:25:08;10.20;;;7.72;;
20888;SDS011;10604;51.976;7.594;2022-11-15T06:27:33;11.15;;;7.70;;
20888;SDS011;10604;51.976;7.594;2022-11-15T06:29:58;10.63;;;7.40;;
20888;SDS011;10604;51.976;7.594;2022-11-15T06:32:24;10.65;;;7.97;;
20888;SDS011;10604;51.976;7.594;2022-11-15T06:34:49;11.50;;;8.25;;
20888;SDS011;10604;51.976;7.594;2022-11-15T06:37:14;10.13;;;7.40;;
20888;SDS011;10604;51.976;7.594;2022-11-15T06:39:40;13.77;;;7.80;;
20888;SDS011;10604;51.976;7.594;2022-11-15T06:42:05;12.27;;;8.00;;
20888;SDS011;10604;51.976;7.594;2022-11-15T06:44:32;10.15;;;7.95;;
20888;SDS011;10604;51.976;7.594;2022-11-15T06:46:58;9.93;;;7.07;;
20888;SDS011;10604;51.976;7.594;2022-11-15T06:49:23;8.13;;;7.03;;
20888;SDS011;10604;51.976;7.594;2022-11-15T06:51:48;9.18;;;7.10;;
20888;SDS011;10604;51.976;7.594;2022-11-15T06:54:14;10.00;;;7.95;;
20888;SDS011;10604;51.976;7.594;2022-11-15T06:56:39;9.95;;;7.63;;
20888;SDS011;10604;51.976;7.594;2022-11-15T06:59:04;8.63;;;6.55;;
20888;SDS011;10604;51.976;7.594;2022-11-15T07:01:29;11.88;;;7.47;;
20888;SDS011;10604;51.976;7.594;2022-11-15T07:03:55;10.43;;;7.68;;
20888;SDS011;10604;51.976;7.594;2022-11-15T07:06:20;7.53;;;6.68;;
20888;SDS011;10604;51.976;7.594;2022-11-15T07:08:45;10.32;;;7.47;;
20888;SDS011;10604;51.976;7.594;2022-11-15T07:11:11;8.82;;;6.80;;
20888;SDS011;10604;51.976;7.594;2022-11-15T07:13:36;8.70;;;6.90;;
20888;SDS011;10604;51.976;7.594;2022-11-15T07:16:06;11.38;;;7.18;;
20888;SDS011;10604;51.976;7.594;2022-11-15T07:18:36;8.60;;;6.93;;
20888;SDS011;10604;51.976;7.594;2022-11-15T07:21:06;10.27;;;6.40;;
20888;SDS011;10604;51.976;7.594;2022-11-15T07:23:38;8.18;;;6.45;;
20888;SDS011;10604;51.976;7.594;2022-11-15T07:26:04;8.20;;;6.78;;
20888;SDS011;10604;51.976;7.594;2022-11-15T07:28:30;8.77;;;6.70;;
20888;SDS011;10604;51.976;7.594;2022-11-15T07:30:56;7.22;;;5.90;;
20888;SDS011;10604;51.976;7.594;2022-11-15T07:33:21;7.70;;;5.68;;
20888;SDS011;10604;51.976;7.594;2022-11-15T07:35:47;6.35;;;5.75;;
20888;SDS011;10604;51.976;7.594;2022-11-15T07:38:15;7.25;;;5.53;;
20888;SDS011;10604;51.976;7.594;2022-11-15T07:40:44;7.30;;;5.20;;
20888;SDS011;10604;51.976;7.594;2022-11-15T07:43:10;5.93;;;5.32;;
20888;SDS011;10604;51.976;7.594;2022-11-15T07:45:39;7.57;;;5.22;;
20888;SDS011;10604;51.976;7.594;2022-11-15T07:48:06;6.93;;;5.40;;
20888;SDS011;10604;51.976;7.594;2022-11-15T07:50:31;5.07;;;4.57;;
20888;SDS011;10604;51.976;7.594;2022-11-15T07:52:58;6.72;;;5.07;;
20888;SDS011;10604;51.976;7.594;2022-11-15T07:55:25;5.57;;;4.93;;
20888;SDS011;10604;51.976;7.594;2022-11-15T07:57:52;5.10;;;4.60;;
20888;SDS011;10604;51.976;7.594;2022-11-15T08:00:18;6.68;;;4.50;;
20888;SDS011;10604;51.976;7.594;2022-11-15T08:02:44;5.47;;;4.38;;
20888;SDS011;10604;51.976;7.594;2022-11-15T08:05:10;8.05;;;4.25;;
20888;SDS011;10604;51.976;7.594;2022-11-15T08:07:35;4.60;;;4.07;;
20888;SDS011;10604;51.976;7.594;2022-11-15T08:10:01;6.80;;;4.10;;
20888;SDS011;10604;51.976;7.594;2022-11-15T08:12:29;4.00;;;3.58;;
20888;SDS011;10604;51.976;7.594;2022-11-15T08:14:55;4.20;;;3.60;;
20888;SDS011;10604;51.976;7.594;2022-11-15T08:17:21;3.88;;;3.08;;
20888;SDS011;10604;51.976;7.594;2022-11-15T08:19:47;4.05;;;3.50;;
20888;SDS011;10604;51.976;7.594;2022-11-15T08:22:13;3.92;;;3.53;;
20888;SDS011;10604;51.976;7.594;2022-11-15T08:24:39;3.10;;;2.80;;
20888;SDS011;10604;51.976;7.594;2022-11-15T08:27:04;3.13;;;2.83;;
20888;SDS011;10604;51.976;7.594;2022-11-15T08:29:30;3.90;;;2.85;;
20888;SDS011;10604;51.976;7.594;2022-11-15T08:31:55;4.28;;;2.70;;
20888;SDS011;10604;51.976;7.594;2022-11-15T08:34:21;4.60;;;2.90;;
20888;SDS011;10604;51.976;7.594;2022-11-15T08:36:47;3.35;;;2.85;;
20888;SDS011;10604;51.976;7.594;2022-11-15T08:39:12;3.17;;;2.88;;
20888;SDS011;10604;51.976;7.594;2022-11-15T08:41:38;3.53;;;2.53;;
20888;SDS011;10604;51.976;7.594;2022-11-15T08:44:04;2.10;;;1.90;;
20888;SDS011;10604;51.976;7.594;2022-11-15T08:46:29;2.83;;;2.10;;
20888;SDS011;10604;51.976;7.594;2022-11-15T08:48:55;3.25;;;2.20;;
20888;SDS011;10604;51.976;7.594;2022-11-15T08:51:20;2.72;;;1.80;;
20888;SDS011;10604;51.976;7.594;2022-11-15T08:53:45;2.95;;;2.13;;
20888;SDS011;10604;51.976;7.594;2022-11-15T08:56:13;2.30;;;2.08;;
20888;SDS011;10604;51.976;7.594;2022-11-15T08:58:39;3.38;;;2.20;;
20888;SDS011;10604;51.976;7.594;2022-11-15T09:01:05;3.85;;;1.92;;
20888;SDS011;10604;51.976;7.594;2022-11-15T09:03:31;2.28;;;1.83;;
20888;SDS011;10604;51.976;7.594;2022-11-15T09:05:58;2.17;;;1.70;;
20888;SDS011;10604;51.976;7.594;2022-11-15T09:08:30;2.42;;;1.83;;
20888;SDS011;10604;51.976;7.594;2022-11-15T09:10:56;2.60;;;1.80;;
20888;SDS011;10604;51.976;7.594;2022-11-15T09:13:22;4.32;;;2.00;;
20888;SDS011;10604;51.976;7.594;2022-11-15T09:15:47;2.65;;;1.58;;
20888;SDS011;10604;51.976;7.594;2022-11-15T09:18:12;1.55;;;1.45;;
20888;SDS011;10604;51.976;7.594;2022-11-15T09:20:38;1.83;;;1.67;;
20888;SDS011;10604;51.976;7.594;2022-11-15T09:23:03;2.10;;;1.50;;
20888;SDS011;10604;51.976;7.594;2022-11-15T09:25:29;1.60;;;1.50;;
20888;SDS011;10604;51.976;7.594;2022-11-15T09:27:55;2.55;;;1.50;;
20888;SDS011;10604;51.976;7.594;2022-11-15T09:30:21;2.33;;;1.42;;
20888;SDS011;10604;51.976;7.594;2022-11-15T09:32:47;3.72;;;1.42;;
20888;SDS011;10604;51.976;7.594;2022-11-15T09:35:13;2.42;;;1.65;;
20888;SDS011;10604;51.976;7.594;2022-11-15T09:37:38;1.65;;;1.40;;
20888;SDS011;10604;51.976;7.594;2022-11-15T09:40:03;2.50;;;1.60;;
20888;SDS011;10604;51.976;7.594;2022-11-15T09:50:10;1.30;;;1.20;;
20888;SDS011;10604;51.976;7.594;2022-11-15T09:52:38;1.65;;;1.35;;
20888;SDS011;10604;51.976;7.594;2022-11-15T09:55:07;2.60;;;1.58;;
20888;SDS011;10604;51.976;7.594;2022-11-15T09:57:38;2.72;;;1.90;;
20888;SDS011;10604;51.976;7.594;2022-11-15T10:00:30;1.95;;;1.60;;
20888;SDS011;10604;51.976;7.594;2022-11-15T10:03:10;2.72;;;1.30;;
20888;SDS011;10604;51.976;7.594;2022-11-15T10:05:45;1.90;;;1.60;;
20888;SDS011;10604;51.976;7.594;2022-11-15T10:10:51;1.75;;;1.38;;
20888;SDS011;10604;51.976;7.594;2022-11-15T10:15:49;2.60;;;1.27;;
20888;SDS011;10604;51.976;7.594;2022-11-15T10:21:29;3.78;;;1.42;;
20888;SDS011;10604;51.976;7.594;2022-11-15T10:24:12;1.40;;;1.30;;
20888;SDS011;10604;51.976;7.594;2022-11-15T10:26:47;2.00;;;1.20;;
20888;SDS011;10604;51.976;7.594;2022-11-15T10:29:20;1.00;;;0.90;;
20888;SDS011;10604;51.976;7.594;2022-11-15T10:31:47;1.42;;;1.10;;
20888;SDS011;10604;51.976;7.594;2022-11-15T10:34:14;3.22;;;0.98;;
20888;SDS011;10604;51.976;7.594;2022-11-15T10:36:44;2.15;;;1.13;;
20888;SDS011;10604;51.976;7.594;2022-11-15T10:39:19;2.63;;;1.25;;
20888;SDS011;10604;51.976;7.594;2022-11-15T10:41:44;2.13;;;1.00;;
20888;SDS011;10604;51.976;7.594;2022-11-15T10:44:11;2.00;;;1.42;;
20888;SDS011;10604;51.976;7.594;2022-11-15T10:49:29;6.30;;;1.30;;
20888;SDS011;10604;51.976;7.594;2022-11-15T10:54:33;2.25;;;1.15;;
20888;SDS011;10604;51.976;7.594;2022-11-15T10:57:07;1.48;;;1.05;;
20888;SDS011;10604;51.976;7.594;2022-11-15T10:59:37;2.13;;;1.00;;
20888;SDS011;10604;51.976;7.594;2022-11-15T11:02:21;4.60;;;1.10;;
20888;SDS011;10604;51.976;7.594;2022-11-15T11:04:51;6.22;;;1.13;;
20888;SDS011;10604;51.976;7.594;2022-11-15T11:07:21;1.15;;;0.70;;
20888;SDS011;10604;51.976;7.594;2022-11-15T11:09:48;1.13;;;0.93;;
20888;SDS011;10604;51.976;7.594;2022-11-15T11:12:30;2.40;;;0.85;;
20888;SDS011;10604;51.976;7.594;2022-11-15T11:14:58;1.38;;;0.90;;
20888;SDS011;10604;51.976;7.594;2022-11-15T11:17:48;1.17;;;0.90;;
20888;SDS011;10604;51.976;7.594;2022-11-15T11:29:21;2.40;;;0.80;;
20888;SDS011;10604;51.976;7.594;2022-11-15T11:51:28;1.48;;;0.88;;
20888;SDS011;10604;51.976;7.594;2022-11-15T11:54:03;0.88;;;0.80;;
20888;SDS011;10604;51.976;7.594;2022-11-15T11:56:37;3.13;;;0.80;;
20888;SDS011;10604;51.976;7.594;2022-11-15T12:01:58;1.63;;;0.90;;
20888;SDS011;10604;51.976;7.594;2022-11-15T12:04:36;1.08;;;0.80;;
20888;SDS011;10604;51.976;7.594;2022-11-15T12:07:12;1.73;;;0.80;;
20888;SDS011;10604;51.976;7.594;2022-11-15T12:17:33;1.40;;;0.90;;
20888;SDS011;10604;51.976;7.594;2022-11-15T12:19:59;1.20;;;0.90;;
20888;SDS011;10604;51.976;7.594;2022-11-15T12:22:42;1.00;;;0.80;;
20888;SDS011;10604;51.976;7.594;2022-11-15T12:25:23;3.25;;;0.95;;
20888;SDS011;10604;51.976;7.594;2022-11-15T12:33:54;0.93;;;0.73;;
20888;SDS011;10604;51.976;7.594;2022-11-15T12:41:30;2.72;;;0.90;;
20888;SDS011;10604;51.976;7.594;2022-11-15T12:43:59;1.40;;;0.90;;
20888;SDS011;10604;51.976;7.594;2022-11-15T12:51:20;3.90;;;1.63;;
20888;SDS011;10604;51.976;7.594;2022-11-15T12:53:47;1.52;;;0.93;;
20888;SDS011;10604;51.976;7.594;2022-11-15T13:07:02;0.82;;;0.75;;
20888;SDS011;10604;51.976;7.594;2022-11-15T13:12:03;2.25;;;1.00;;
20888;SDS011;10604;51.976;7.594;2022-11-15T13:14:46;1.70;;;0.88;;
20888;SDS011;10604;51.976;7.594;2022-11-15T13:19:59;2.88;;;1.00;;
20888;SDS011;10604;51.976;7.594;2022-11-15T13:22:32;1.83;;;0.80;;
20888;SDS011;10604;51.976;7.594;2022-11-15T13:27:44;1.35;;;0.90;;
20888;SDS011;10604;51.976;7.594;2022-11-15T13:30:30;0.82;;;0.77;;
20888;SDS011;10604;51.976;7.594;2022-11-15T13:32:58;3.08;;;0.70;;
20888;SDS011;10604;51.976;7.594;2022-11-15T13:35:40;1.35;;;0.80;;
20888;SDS011;10604;51.976;7.594;2022-11-15T13:38:11;1.42;;;1.00;;
20888;SDS011;10604;51.976;7.594;2022-11-15T13:40:49;1.95;;;0.80;;
20888;SDS011;10604;51.976;7.594;2022-11-15T13:43:49;0.90;;;0.80;;
20888;SDS011;10604;51.976;7.594;2022-11-15T13:48:57;1.23;;;0.80;;
20888;SDS011;10604;51.976;7.594;2022-11-15T13:51:27;0.98;;;0.63;;
20888;SDS011;10604;51.976;7.594;2022-11-15T13:56:37;1.38;;;0.82;;
20888;SDS011;10604;51.976;7.594;2022-11-15T13:59:14;1.35;;;0.73;;
20888;SDS011;10604;51.976;7.594;2022-11-15T14:01:47;1.27;;;0.93;;
20888;SDS011;10604;51.976;7.594;2022-11-15T14:04:17;1.17;;;0.70;;
20888;SDS011;10604;51.976;7.594;2022-11-15T14:06:49;1.13;;;0.70;;
20888;SDS011;10604;51.976;7.594;2022-11-15T14:11:57;4.25;;;1.20;;
20888;SDS011;10604;51.976;7.594;2022-11-15T14:14:24;1.95;;;0.80;;
20888;SDS011;10604;51.976;7.594;2022-11-15T14:16:52;2.75;;;1.20;;
20888;SDS011;10604;51.976;7.594;2022-11-15T14:30:35;1.85;;;0.77;;
20888;SDS011;10604;51.976;7.594;2022-11-15T14:33:01;1.33;;;0.65;;
20888;SDS011;10604;51.976;7.594;2022-11-15T14:35:26;2.42;;;0.77;;
20888;SDS011;10604;51.976;7.594;2022-11-15T14:37:52;1.48;;;0.75;;
20888;SDS011;10604;51.976;7.594;2022-11-15T14:40:21;1.05;;;0.80;;
20888;SDS011;10604;51.976;7.594;2022-11-15T14:42:47;5.53;;;0.80;;
20888;SDS011;10604;51.976;7.594;2022-11-15T14:45:15;1.65;;;0.73;;
20888;SDS011;10604;51.976;7.594;2022-11-15T14:47:44;1.25;;;0.70;;
20888;SDS011;10604;51.976;7.594;2022-11-15T14:50:13;1.30;;;0.90;;
20888;SDS011;10604;51.976;7.594;2022-11-15T14:52:43;3.72;;;1.40;;
20888;SDS011;10604;51.976;7.594;2022-11-15T14:55:15;2.25;;;1.00;;
20888;SDS011;10604;51.976;7.594;2022-11-15T14:57:45;1.67;;;1.00;;
20888;SDS011;10604;51.976;7.594;2022-11-15T15:00:11;2.22;;;1.10;;
20888;SDS011;10604;51.976;7.594;2022-11-15T15:02:37;1.80;;;1.20;;
20888;SDS011;10604;51.976;7.594;2022-11-15T15:05:12;3.33;;;1.17;;
20888;SDS011;10604;51.976;7.594;2022-11-15T15:07:39;3.65;;;1.08;;
20888;SDS011;10604;51.976;7.594;2022-11-15T15:10:05;2.20;;;1.17;;
20888;SDS011;10604;51.976;7.594;2022-11-15T15:12:30;1.88;;;1.10;;
20888;SDS011;10604;51.976;7.594;2022-11-15T15:14:56;1.42;;;1.02;;
20888;SDS011;10604;51.976;7.594;2022-11-15T15:17:21;3.13;;;0.90;;
20888;SDS011;10604;51.976;7.594;2022-11-15T15:19:46;2.17;;;1.15;;
20888;SDS011;10604;51.976;7.594;2022-11-15T15:22:13;1.00;;;0.98;;
20888;SDS011;10604;51.976;7.594;2022-11-15T15:24:40;1.92;;;1.20;;
20888;SDS011;10604;51.976;7.594;2022-11-15T15:27:06;2.50;;;1.10;;
20888;SDS011;10604;51.976;7.594;2022-11-15T15:29:31;2.28;;;1.27;;
20888;SDS011;10604;51.976;7.594;2022-11-15T15:31:56;8.43;;;1.75;;
20888;SDS011;10604;51.976;7.594;2022-11-15T15:34:22;1.85;;;1.40;;
20888;SDS011;10604;51.976;7.594;2022-11-15T15:36:47;1.98;;;1.30;;
20888;SDS011;10604;51.976;7.594;2022-11-15T15:39:13;4.20;;;0.95;;
20888;SDS011;10604;51.976;7.594;2022-11-15T15:41:38;3.45;;;1.23;;
20888;SDS011;10604;51.976;7.594;2022-11-15T15:44:03;1.90;;;1.15;;
20888;SDS011;10604;51.976;7.594;2022-11-15T15:46:28;2.63;;;1.45;;
20888;SDS011;10604;51.976;7.594;2022-11-15T15:48:54;4.43;;;1.30;;
20888;SDS011;10604;51.976;7.594;2022-11-15T15:51:19;1.10;;;1.00;;
20888;SDS011;10604;51.976;7.594;2022-11-15T15:53:45;2.47;;;1.48;;
20888;SDS011;10604;51.976;7.594;2022-11-15T15:56:10;3.92;;;1.50;;
20888;SDS011;10604;51.976;7.594;2022-11-15T15:58:36;2.65;;;1.38;;
20888;SDS011;10604;51.976;7.594;2022-11-15T16:01:01;3.42;;;1.48;;
20888;SDS011;10604;51.976;7.594;2022-11-15T16:03:27;2.85;;;1.35;;
20888;SDS011;10604;51.976;7.594;2022-11-15T16:05:52;3.60;;;1.52;;
20888;SDS011;10604;51.976;7.594;2022-11-15T16:08:18;2.83;;;1.52;;
20888;SDS011;10604;51.976;7.594;2022-11-15T16:10:46;1.52;;;1.30;;
20888;SDS011;10604;51.976;7.594;2022-11-15T16:13:11;1.98;;;1.20;;
20888;SDS011;10604;51.976;7.594;2022-11-15T16:15:37;11.48;;;1.98;;
20888;SDS011;10604;51.976;7.594;2022-11-15T16:18:03;9.30;;;2.00;;
20888;SDS011;10604;51.976;7.594;2022-11-15T16:22:58;9.07;;;1.75;;
20888;SDS011;10604;51.976;7.594;2022-11-15T16:25:24;2.55;;;1.65;;
20888;SDS011;10604;51.976;7.594;2022-11-15T16:27:49;4.60;;;1.70;;
20888;SDS011;10604;51.976;7.594;2022-11-15T16:30:16;4.03;;;1.85;;
20888;SDS011;10604;51.976;7.594;2022-11-15T16:32:43;7.80;;;2.47;;
20888;SDS011;10604;51.976;7.594;2022-11-15T16:35:12;2.55;;;2.00;;
20888;SDS011;10604;51.976;7.594;2022-11-15T16:37:38;2.85;;;2.28;;
20888;SDS011;10604;51.976;7.594;2022-11-15T16:42:51;3.72;;;2.33;;
20888;SDS011;10604;51.976;7.594;2022-11-15T16:45:16;4.25;;;2.13;;
20888;SDS011;10604;51.976;7.594;2022-11-15T16:47:42;2.33;;;1.88;;
20888;SDS011;10604;51.976;7.594;2022-11-15T16:50:15;3.90;;;2.10;;
20888;SDS011;10604;51.976;7.594;2022-11-15T16:52:48;5.38;;;2.05;;
20888;SDS011;10604;51.976;7.594;2022-11-15T16:55:14;2.08;;;1.83;;
20888;SDS011;10604;51.976;7.594;2022-11-15T16:57:39;2.80;;;1.73;;
20888;SDS011;10604;51.976;7.594;2022-11-15T17:00:05;4.57;;;3.40;;
20888;SDS011;10604;51.976;7.594;2022-11-15T17:02:31;6.07;;;3.53;;
20888;SDS011;10604;51.976;7.594;2022-11-15T17:04:57;4.90;;;2.70;;
20888;SDS011;10604;51.976;7.594;2022-11-15T17:07:23;8.40;;;4.38;;
20888;SDS011;10604;51.976;7.594;2022-11-15T17:09:49;15.77;;;10.73;;
20888;SDS011;10604;51.976;7.594;2022-11-15T17:12:14;40.75;;;32.20;;
20888;SDS011;10604;51.976;7.594;2022-11-15T17:14:40;19.45;;;16.90;;
20888;SDS011;10604;51.976;7.594;2022-11-15T17:17:07;12.23;;;10.38;;
20888;SDS011;10604;51.976;7.594;2022-11-15T17:19:33;7.57;;;5.25;;
20888;SDS011;10604;51.976;7.594;2022-11-15T17:21:59;7.47;;;6.05;;
20888;SDS011;10604;51.976;7.594;2022-11-15T17:24:24;10.55;;;6.82;;
20888;SDS011;10604;51.976;7.594;2022-11-15T17:26:50;7.30;;;5.00;;